Time;durP1;ratioP1;P1;durP2;ratioP2;P2;SDS_P1;SDS_P2;PMS_P1;PMS_P2;Temp;Humidity;BMP_temperature;BMP_pressure;BME280_temperature;BME280_humidity;BME280_pressure;Samples;Min_cycle;Max_cycle;Signal;HPM_P1;HPM_P2
2022/06/13 00:02:49;;;;;;;5.38;2.80;;;;;;;;;;6170897;28;20106;-80
2022/06/13 00:05:50;;;;;;;5.72;2.70;;;;;;;;;;6182953;28;20566;-81
2022/06/13 00:08:52;;;;;;;4.80;2.70;;;;;;;;;;6165446;28;20125;-80
2022/06/13 00:11:54;;;;;;;4.22;2.83;;;;;;;;;;6184529;28;20102;-81
2022/06/13 00:14:56;;;;;;;5.70;2.70;;;;;;;;;;6186011;28;20205;-80
2022/06/13 00:17:58;;;;;;;4.45;2.85;;;;;;;;;;6182173;28;20066;-79
2022/06/13 00:20:59;;;;;;;4.20;2.60;;;;;;;;;;6174155;28;20047;-81
2022/06/13 00:24:04;;;;;;;9.15;2.80;;;;;;;;;;6185607;28;20046;-80
2022/06/13 00:27:06;;;;;;;4.70;2.50;;;;;;;;;;6184863;28;20054;-79
2022/06/13 00:30:09;;;;;;;6.30;3.08;;;;;;;;;;6184339;28;20456;-79
2022/06/13 00:33:11;;;;;;;6.15;2.78;;;;;;;;;;6190851;28;20056;-80
2022/06/13 00:36:13;;;;;;;5.68;2.97;;;;;;;;;;6181683;28;20043;-81
2022/06/13 00:39:15;;;;;;;4.82;2.95;;;;;;;;;;6165495;28;20066;-79
2022/06/13 00:42:21;;;;;;;4.85;2.78;;;;;;;;;;6165851;28;20138;-80
2022/06/13 00:45:26;;;;;;;5.50;2.70;;;;;;;;;;6176586;28;20124;-79
2022/06/13 00:48:29;;;;;;;5.47;3.05;;;;;;;;;;6188221;28;20062;-79
2022/06/13 00:51:36;;;;;;;4.55;2.75;;;;;;;;;;6188873;28;20046;-79
2022/06/13 00:54:40;;;;;;;4.60;2.85;;;;;;;;;;6189894;28;20418;-79
2022/06/13 00:57:41;;;;;;;7.00;3.17;;;;;;;;;;6189716;28;20109;-79
2022/06/13 01:00:48;;;;;;;5.90;3.13;;;;;;;;;;6163874;28;20110;-80
2022/06/13 01:03:50;;;;;;;4.40;2.60;;;;;;;;;;6193538;28;20042;-79
2022/06/13 01:06:52;;;;;;;4.85;2.90;;;;;;;;;;6182062;28;20129;-79
2022/06/13 01:13:16;;;;;;;4.13;2.55;;;;;;;;;;6187306;28;20058;-79
2022/06/13 01:16:45;;;;;;;4.60;2.30;;;;;;;;;;6185196;28;20204;-78
2022/06/13 01:20:08;;;;;;;8.13;3.00;;;;;;;;;;6182741;28;20063;-79
2022/06/13 01:23:37;;;;;;;6.00;2.77;;;;;;;;;;6162840;28;20045;-78
2022/06/13 01:26:58;;;;;;;7.25;3.08;;;;;;;;;;6157856;28;20545;-79
2022/06/13 01:30:22;;;;;;;5.75;2.70;;;;;;;;;;6171756;28;20046;-80
2022/06/13 01:33:43;;;;;;;6.20;2.90;;;;;;;;;;6178039;28;20042;-80
2022/06/13 01:37:06;;;;;;;5.45;2.85;;;;;;;;;;6175380;28;20112;-78
2022/06/13 01:40:18;;;;;;;3.63;2.42;;;;;;;;;;6168106;28;20772;-79
2022/06/13 01:43:50;;;;;;;4.82;2.63;;;;;;;;;;6184582;28;20073;-79
2022/06/13 01:47:30;;;;;;;4.80;2.88;;;;;;;;;;6177124;28;20042;-78
2022/06/13 01:51:08;;;;;;;5.82;2.80;;;;;;;;;;6169755;28;20131;-81
2022/06/13 01:54:28;;;;;;;5.53;2.92;;;;;;;;;;6190742;28;20129;-79
2022/06/13 01:57:39;;;;;;;6.47;3.47;;;;;;;;;;6177589;28;20095;-79
2022/06/13 02:00:48;;;;;;;6.88;3.17;;;;;;;;;;6180877;28;20064;-80
2022/06/13 02:04:21;;;;;;;7.43;2.78;;;;;;;;;;6177943;28;20069;-79
2022/06/13 02:07:29;;;;;;;4.68;2.80;;;;;;;;;;6176819;28;20141;-80
2022/06/13 02:10:35;;;;;;;5.40;2.97;;;;;;;;;;6180853;28;20070;-80
2022/06/13 02:13:42;;;;;;;6.10;3.08;;;;;;;;;;6187299;28;20038;-80
2022/06/13 02:16:51;;;;;;;5.93;3.00;;;;;;;;;;6172638;28;20050;-81
2022/06/13 02:20:01;;;;;;;4.43;2.80;;;;;;;;;;6187282;28;20133;-80
2022/06/13 02:23:11;;;;;;;3.83;2.88;;;;;;;;;;6180852;28;20046;-78
2022/06/13 02:26:21;;;;;;;4.65;2.88;;;;;;;;;;6190965;28;20052;-79
2022/06/13 02:29:30;;;;;;;4.82;2.72;;;;;;;;;;6176959;28;20295;-80
2022/06/13 02:32:41;;;;;;;4.20;2.78;;;;;;;;;;6172164;28;20511;-78
2022/06/13 02:35:50;;;;;;;6.25;2.75;;;;;;;;;;6179716;28;20057;-79
2022/06/13 02:38:52;;;;;;;6.65;2.78;;;;;;;;;;6183660;28;20057;-77
2022/06/13 02:41:59;;;;;;;6.22;2.80;;;;;;;;;;6186046;28;20049;-78
2022/06/13 02:45:06;;;;;;;4.07;2.65;;;;;;;;;;6175378;28;20531;-79
2022/06/13 02:48:14;;;;;;;5.57;2.88;;;;;;;;;;6153803;28;20042;-80
2022/06/13 02:51:54;;;;;;;6.07;2.90;;;;;;;;;;6172965;28;20050;-80
2022/06/13 02:54:59;;;;;;;5.07;3.38;;;;;;;;;;6182750;28;20049;-79
2022/06/13 02:58:16;;;;;;;5.32;2.83;;;;;;;;;;6174216;28;20142;-78
2022/06/13 03:01:24;;;;;;;4.47;2.97;;;;;;;;;;6174951;28;20058;-79
2022/06/13 03:04:35;;;;;;;6.93;3.28;;;;;;;;;;6186632;28;20042;-78
2022/06/13 03:07:44;;;;;;;5.25;2.80;;;;;;;;;;6175040;28;20504;-80
2022/06/13 03:11:00;;;;;;;4.80;2.78;;;;;;;;;;6179795;28;20043;-80
2022/06/13 03:14:17;;;;;;;5.20;3.42;;;;;;;;;;6174660;28;20496;-80
2022/06/13 03:17:32;;;;;;;5.70;3.08;;;;;;;;;;6183219;28;20178;-79
2022/06/13 03:20:33;;;;;;;6.22;3.60;;;;;;;;;;6176008;28;20047;-77
2022/06/13 03:23:43;;;;;;;4.30;3.22;;;;;;;;;;6184409;28;20110;-78
2022/06/13 03:26:52;;;;;;;4.40;3.00;;;;;;;;;;6186222;28;20094;-78
2022/06/13 03:30:00;;;;;;;5.38;3.65;;;;;;;;;;6138351;28;20081;-78
2022/06/13 03:36:40;;;;;;;7.07;3.20;;;;;;;;;;6176179;28;20048;-78
2022/06/13 03:39:50;;;;;;;9.25;3.78;;;;;;;;;;6184606;28;20047;-78
2022/06/13 03:42:59;;;;;;;5.28;3.50;;;;;;;;;;6186420;28;20153;-79
2022/06/13 03:46:09;;;;;;;7.05;3.97;;;;;;;;;;6154641;28;20589;-78
2022/06/13 03:49:20;;;;;;;13.95;6.82;;;;;;;;;;6180254;28;20034;-80
2022/06/13 03:52:25;;;;;;;40.40;17.13;;;;;;;;;;6145892;28;20047;-79
2022/06/13 03:55:34;;;;;;;37.72;15.30;;;;;;;;;;6158436;28;20039;-80
2022/06/13 03:58:42;;;;;;;21.75;10.70;;;;;;;;;;6177036;28;20042;-78
2022/06/13 04:01:52;;;;;;;17.77;7.15;;;;;;;;;;6176515;28;20043;-80
2022/06/13 04:04:54;;;;;;;14.50;7.03;;;;;;;;;;6184872;28;20042;-79
2022/06/13 04:07:58;;;;;;;18.02;8.75;;;;;;;;;;6174487;28;20435;-78
2022/06/13 04:11:18;;;;;;;;;;;;;;;;;;6186908;28;20041;-79
2022/06/13 04:14:42;;;;;;;12.70;6.85;;;;;;;;;;6173497;28;19922;-78
2022/06/13 04:18:03;;;;;;;26.08;10.63;;;;;;;;;;6178812;28;20337;-79
2022/06/13 04:21:14;;;;;;;21.77;10.48;;;;;;;;;;6183375;28;20416;-79
2022/06/13 04:24:47;;;;;;;15.70;8.05;;;;;;;;;;6178411;28;20107;-79
2022/06/13 04:28:26;;;;;;;6.78;4.40;;;;;;;;;;6179317;28;20042;-80
2022/06/13 04:31:30;;;;;;;9.10;4.18;;;;;;;;;;6184995;28;20046;-77
2022/06/13 04:34:36;;;;;;;5.30;4.05;;;;;;;;;;6184053;28;20043;-80
2022/06/13 04:37:40;;;;;;;8.60;3.78;;;;;;;;;;6185594;28;20141;-79
2022/06/13 04:40:45;;;;;;;4.93;3.17;;;;;;;;;;6191353;28;20049;-80
2022/06/13 04:43:51;;;;;;;4.63;3.40;;;;;;;;;;6185164;28;20050;-79
2022/06/13 04:46:55;;;;;;;6.38;4.03;;;;;;;;;;6184747;28;20053;-79
2022/06/13 04:49:58;;;;;;;5.75;4.05;;;;;;;;;;6184712;28;20066;-80
2022/06/13 04:53:04;;;;;;;5.82;3.65;;;;;;;;;;6160194;28;20393;-79
2022/06/13 04:56:06;;;;;;;5.07;3.53;;;;;;;;;;6168825;28;20129;-78
2022/06/13 04:59:13;;;;;;;7.40;3.88;;;;;;;;;;6165638;28;20047;-79
2022/06/13 05:02:23;;;;;;;7.78;3.78;;;;;;;;;;6175711;28;20180;-78
2022/06/13 05:05:43;;;;;;;8.07;3.75;;;;;;;;;;6181956;28;20178;-80
2022/06/13 05:08:51;;;;;;;8.35;3.60;;;;;;;;;;6184367;28;20125;-79
2022/06/13 05:12:04;;;;;;;5.18;3.40;;;;;;;;;;6190420;28;20038;-79
2022/06/13 05:15:18;;;;;;;7.18;3.25;;;;;;;;;;6178070;28;20331;-80
2022/06/13 05:18:39;;;;;;;7.60;3.20;;;;;;;;;;6186769;28;20056;-79
2022/06/13 05:22:10;;;;;;;7.90;3.13;;;;;;;;;;6154956;28;20046;-80
2022/06/13 05:25:41;;;;;;;4.63;3.30;;;;;;;;;;6162752;28;20074;-80
2022/06/13 05:28:42;;;;;;;5.20;3.00;;;;;;;;;;6173602;28;20189;-78
2022/06/13 05:31:44;;;;;;;5.60;3.35;;;;;;;;;;6182540;28;20136;-79
2022/06/13 05:34:47;;;;;;;5.82;3.60;;;;;;;;;;6181652;28;20042;-79
2022/06/13 05:37:50;;;;;;;7.63;3.83;;;;;;;;;;6162490;28;20125;-79
2022/06/13 05:40:53;;;;;;;5.47;3.40;;;;;;;;;;6185364;28;20038;-79
2022/06/13 05:43:55;;;;;;;4.90;3.30;;;;;;;;;;6175574;28;20124;-80
2022/06/13 05:46:57;;;;;;;7.45;3.28;;;;;;;;;;6188483;28;20034;-79
2022/06/13 05:49:58;;;;;;;5.88;2.85;;;;;;;;;;6184092;28;20068;-79
2022/06/13 05:53:00;;;;;;;9.20;3.15;;;;;;;;;;6180677;28;20403;-78
2022/06/13 05:56:02;;;;;;;9.05;3.70;;;;;;;;;;6192088;28;20097;-80
2022/06/13 05:59:04;;;;;;;5.90;3.50;;;;;;;;;;6183825;28;20114;-79
2022/06/13 06:02:09;;;;;;;9.85;3.22;;;;;;;;;;6191571;28;20046;-78
2022/06/13 06:05:11;;;;;;;9.55;3.10;;;;;;;;;;6185300;28;20579;-80
2022/06/13 06:08:19;;;;;;;16.45;3.88;;;;;;;;;;6180126;28;20067;-79
2022/06/13 06:11:22;;;;;;;9.63;3.33;;;;;;;;;;6190926;28;20105;-80
2022/06/13 06:14:24;;;;;;;;;;;;;;;;;;6155826;28;20079;-79
2022/06/13 06:17:25;;;;;;;9.98;2.97;;;;;;;;;;6186588;28;20383;-80
2022/06/13 06:20:27;;;;;;;8.23;2.65;;;;;;;;;;6181248;28;20065;-80
2022/06/13 06:23:29;;;;;;;10.75;3.20;;;;;;;;;;6178312;28;20477;-80
2022/06/13 06:26:31;;;;;;;8.13;2.78;;;;;;;;;;6194519;28;20050;-79
2022/06/13 06:29:32;;;;;;;5.97;2.22;;;;;;;;;;6155856;28;20067;-79
2022/06/13 06:32:34;;;;;;;5.82;2.78;;;;;;;;;;6165994;28;20122;-79
2022/06/13 06:35:36;;;;;;;8.05;2.55;;;;;;;;;;6181635;28;20393;-78
2022/06/13 06:38:40;;;;;;;4.50;2.78;;;;;;;;;;6193446;28;20043;-79
2022/06/13 06:41:42;;;;;;;3.38;2.20;;;;;;;;;;6170261;28;20046;-80
2022/06/13 06:44:44;;;;;;;6.35;2.28;;;;;;;;;;6159670;28;20168;-79
2022/06/13 06:47:46;;;;;;;4.85;1.92;;;;;;;;;;6183170;28;20077;-80
2022/06/13 06:50:49;;;;;;;5.82;2.25;;;;;;;;;;6182904;28;20127;-81
2022/06/13 07:00:31;;;;;;;6.90;2.05;;;;;;;;;;6170817;28;20042;-80
2022/06/13 07:03:32;;;;;;;8.38;2.50;;;;;;;;;;6181601;28;20123;-80
2022/06/13 07:06:34;;;;;;;6.55;2.03;;;;;;;;;;6181987;28;20046;-80
2022/06/13 07:09:36;;;;;;;5.70;1.75;;;;;;;;;;6178977;28;20059;-78
2022/06/13 07:12:37;;;;;;;8.98;2.20;;;;;;;;;;6184083;28;20055;-78
2022/06/13 07:15:40;;;;;;;6.20;1.90;;;;;;;;;;6169605;28;20066;-79
2022/06/13 07:18:41;;;;;;;4.43;1.90;;;;;;;;;;6177081;28;20047;-80
2022/06/13 07:21:43;;;;;;;7.78;2.53;;;;;;;;;;6179925;28;20046;-79
2022/06/13 07:24:46;;;;;;;7.07;2.20;;;;;;;;;;6177705;28;20043;-78
2022/06/13 07:27:48;;;;;;;5.05;2.17;;;;;;;;;;6181612;28;20090;-78
2022/06/13 07:30:49;;;;;;;6.18;1.90;;;;;;;;;;6179951;28;20133;-79
2022/06/13 07:33:51;;;;;;;4.85;2.17;;;;;;;;;;6191671;28;20051;-79
2022/06/13 07:36:55;;;;;;;5.22;2.40;;;;;;;;;;6185271;28;20038;-79
2022/06/13 07:39:57;;;;;;;9.93;2.47;;;;;;;;;;6192125;28;20157;-79
2022/06/13 07:43:01;;;;;;;6.13;2.17;;;;;;;;;;6189752;28;20042;-79
2022/06/13 07:46:05;;;;;;;4.40;2.45;;;;;;;;;;6189947;28;20145;-79
2022/06/13 07:49:07;;;;;;;6.25;2.53;;;;;;;;;;6189639;28;20039;-79
2022/06/13 07:52:09;;;;;;;9.02;2.88;;;;;;;;;;6187154;28;20102;-78
2022/06/13 07:55:10;;;;;;;8.47;2.67;;;;;;;;;;6196052;28;20053;-78
2022/06/13 07:58:22;;;;;;;7.93;2.80;;;;;;;;;;6179831;28;20047;-79
2022/06/13 08:01:24;;;;;;;6.70;2.50;;;;;;;;;;6192809;28;20073;-78
2022/06/13 08:04:26;;;;;;;;;;;;;;;;;;6193936;28;20046;-80
2022/06/13 08:07:48;;;;;;;7.88;2.25;;;;;;;;;;6172900;28;19926;-79
2022/06/13 08:10:51;;;;;;;10.07;2.72;;;;;;;;;;6198054;28;20050;-78
2022/06/13 08:13:52;;;;;;;9.18;2.83;;;;;;;;;;6192888;28;20055;-79
2022/06/13 08:16:55;;;;;;;11.57;3.25;;;;;;;;;;6193214;28;20052;-78
2022/06/13 08:19:57;;;;;;;9.02;3.15;;;;;;;;;;6172995;28;20410;-80
2022/06/13 08:23:00;;;;;;;12.55;2.88;;;;;;;;;;6155777;28;20103;-79
2022/06/13 08:26:01;;;;;;;8.82;2.97;;;;;;;;;;6194638;28;20108;-79
2022/06/13 08:29:04;;;;;;;8.98;3.05;;;;;;;;;;6184639;28;20043;-80
2022/06/13 08:32:05;;;;;;;6.83;2.80;;;;;;;;;;6192533;28;20125;-81
2022/06/13 08:35:07;;;;;;;8.88;2.67;;;;;;;;;;6185855;28;20053;-80
2022/06/13 08:38:09;;;;;;;7.00;2.92;;;;;;;;;;6167088;28;20073;-78
2022/06/13 08:41:10;;;;;;;7.80;2.63;;;;;;;;;;6172118;28;20125;-80
2022/06/13 08:44:39;;;;;;;4.35;2.30;;;;;;;;;;6170704;28;20051;-80
2022/06/13 08:47:54;;;;;;;8.77;2.60;;;;;;;;;;6151536;28;20412;-81
2022/06/13 08:51:07;;;;;;;9.32;2.67;;;;;;;;;;6155637;28;20074;-79
2022/06/13 08:54:12;;;;;;;8.35;2.42;;;;;;;;;;6190941;28;20439;-81
2022/06/13 08:57:15;;;;;;;4.63;2.20;;;;;;;;;;6190451;28;20130;-80
2022/06/13 09:00:23;;;;;;;5.30;2.03;;;;;;;;;;6163568;28;20133;-84
2022/06/13 09:03:27;;;;;;;8.13;2.53;;;;;;;;;;6191133;28;20046;-81
2022/06/13 09:06:29;;;;;;;4.20;2.22;;;;;;;;;;6188744;28;20401;-82
2022/06/13 09:09:53;;;;;;;5.15;2.63;;;;;;;;;;6184647;28;20088;-81
2022/06/13 09:13:03;;;;;;;7.22;2.67;;;;;;;;;;6188016;28;20050;-80
2022/06/13 09:16:11;;;;;;;4.55;2.50;;;;;;;;;;6183229;28;20125;-80
2022/06/13 09:19:28;;;;;;;4.47;2.65;;;;;;;;;;6195524;28;20062;-80
2022/06/13 09:22:40;;;;;;;6.75;2.90;;;;;;;;;;6179388;28;20142;-79
2022/06/13 09:25:49;;;;;;;;;;;;;;;;;;6194581;28;20043;-80
2022/06/13 09:29:14;;;;;;;8.38;3.30;;;;;;;;;;6191307;28;20046;-79
2022/06/13 09:32:22;;;;;;;7.07;3.95;;;;;;;;;;6159544;28;20047;-80
2022/06/13 09:35:28;;;;;;;7.18;3.25;;;;;;;;;;6190356;28;20071;-81
2022/06/13 09:38:43;;;;;;;7.47;3.53;;;;;;;;;;6170838;28;20062;-81
2022/06/13 09:41:54;;;;;;;8.75;4.25;;;;;;;;;;6185627;28;20084;-79
2022/06/13 09:45:02;;;;;;;8.25;3.83;;;;;;;;;;6177302;28;20130;-80
2022/06/13 09:48:23;;;;;;;6.90;4.03;;;;;;;;;;6190882;28;20575;-78
2022/06/13 09:51:30;;;;;;;8.52;4.32;;;;;;;;;;6185928;28;20057;-79
2022/06/13 09:54:48;;;;;;;10.13;3.83;;;;;;;;;;6191481;28;20050;-79
2022/06/13 09:58:24;;;;;;;6.97;3.75;;;;;;;;;;6189264;28;20154;-78
2022/06/13 10:01:53;;;;;;;7.93;4.07;;;;;;;;;;6181293;28;20050;-78
2022/06/13 10:05:20;;;;;;;12.43;4.00;;;;;;;;;;6185861;28;20097;-78
2022/06/13 10:08:36;;;;;;;7.75;4.40;;;;;;;;;;6189170;28;20053;-79
2022/06/13 10:12:29;;;;;;;7.85;4.10;;;;;;;;;;6189930;28;20097;-79
2022/06/13 10:16:13;;;;;;;8.60;3.97;;;;;;;;;;6173578;28;20520;-79
2022/06/13 10:20:03;;;;;;;6.05;4.07;;;;;;;;;;6189894;28;20049;-79
2022/06/13 10:23:28;;;;;;;7.15;3.72;;;;;;;;;;6157580;28;20069;-79
2022/06/13 10:26:32;;;;;;;8.52;3.55;;;;;;;;;;6175116;28;20278;-78
2022/06/13 10:30:11;;;;;;;7.72;3.47;;;;;;;;;;6177579;28;20039;-78
2022/06/13 10:33:43;;;;;;;7.55;3.28;;;;;;;;;;6186192;28;20136;-80
2022/06/13 10:36:54;;;;;;;7.57;3.80;;;;;;;;;;6181656;28;20054;-79
2022/06/13 10:40:00;;;;;;;9.05;4.32;;;;;;;;;;6188650;28;20119;-80
2022/06/13 10:43:03;;;;;;;5.63;3.85;;;;;;;;;;6164610;28;20676;-79
2022/06/13 10:46:06;;;;;;;7.90;3.80;;;;;;;;;;6161287;28;20412;-79
2022/06/13 10:49:26;;;;;;;10.82;4.32;;;;;;;;;;6163030;28;20118;-79
2022/06/13 10:52:32;;;;;;;9.43;4.20;;;;;;;;;;6188900;28;20110;-79
2022/06/13 10:55:40;;;;;;;7.68;4.10;;;;;;;;;;6176472;28;20074;-78
2022/06/13 10:58:47;;;;;;;8.00;4.18;;;;;;;;;;6181551;28;20057;-80
2022/06/13 11:01:58;;;;;;;7.28;4.07;;;;;;;;;;6201629;28;20048;-79
2022/06/13 11:05:07;;;;;;;7.07;3.80;;;;;;;;;;6181291;28;20042;-79
2022/06/13 11:08:14;;;;;;;7.82;3.85;;;;;;;;;;6187313;28;20053;-79
2022/06/13 11:11:29;;;;;;;7.10;3.75;;;;;;;;;;6159724;28;20050;-79
2022/06/13 11:14:35;;;;;;;9.95;3.78;;;;;;;;;;6185634;28;20045;-79
2022/06/13 11:24:53;;;;;;;8.32;3.55;;;;;;;;;;6172058;28;20046;-78
2022/06/13 11:28:07;;;;;;;8.68;3.63;;;;;;;;;;6184131;28;20050;-78
2022/06/13 11:31:17;;;;;;;6.78;3.00;;;;;;;;;;6179730;28;20049;-80
2022/06/13 11:34:27;;;;;;;4.68;3.03;;;;;;;;;;6196125;28;20057;-78
2022/06/13 11:37:29;;;;;;;6.55;3.50;;;;;;;;;;6168224;28;20050;-78
2022/06/13 11:40:31;;;;;;;5.63;3.10;;;;;;;;;;6198867;28;20186;-77
2022/06/13 11:43:48;;;;;;;7.72;3.45;;;;;;;;;;6195449;28;20101;-79
2022/06/13 11:46:51;;;;;;;7.35;3.53;;;;;;;;;;6172160;28;20481;-78
2022/06/13 11:49:55;;;;;;;7.57;3.53;;;;;;;;;;6193484;28;20078;-78
2022/06/13 11:56:29;;;;;;;7.45;3.13;;;;;;;;;;6196316;28;20046;-79
2022/06/13 11:59:31;;;;;;;8.60;3.20;;;;;;;;;;6185750;28;20046;-80
2022/06/13 12:02:39;;;;;;;6.97;3.53;;;;;;;;;;6181848;28;20066;-79
2022/06/13 12:05:41;;;;;;;6.95;3.45;;;;;;;;;;6189068;28;20050;-81
2022/06/13 12:08:49;;;;;;;7.93;3.00;;;;;;;;;;6171362;28;20129;-81
2022/06/13 12:11:58;;;;;;;7.68;3.65;;;;;;;;;;6194738;28;20061;-80
2022/06/13 12:14:59;;;;;;;9.20;4.07;;;;;;;;;;6179456;28;20050;-79
2022/06/13 12:18:31;;;;;;;8.10;3.47;;;;;;;;;;6177618;28;20074;-81
2022/06/13 12:21:43;;;;;;;7.47;3.25;;;;;;;;;;6172933;28;20086;-80
2022/06/13 12:24:56;;;;;;;8.25;3.78;;;;;;;;;;6185584;28;20416;-78
2022/06/13 12:28:09;;;;;;;9.00;4.00;;;;;;;;;;6183438;28;20060;-80
2022/06/13 12:31:32;;;;;;;11.07;4.05;;;;;;;;;;6185217;28;20073;-80
2022/06/13 12:34:49;;;;;;;9.45;3.50;;;;;;;;;;6160898;28;20050;-79
2022/06/13 12:38:03;;;;;;;7.45;3.55;;;;;;;;;;6145308;28;20686;-78
2022/06/13 12:41:14;;;;;;;7.15;3.80;;;;;;;;;;6153593;28;20051;-80
2022/06/13 12:44:40;;;;;;;6.90;3.58;;;;;;;;;;6183221;28;20132;-79
2022/06/13 12:48:17;;;;;;;5.93;3.35;;;;;;;;;;6181451;28;20496;-79
2022/06/13 12:51:22;;;;;;;6.50;3.05;;;;;;;;;;6177787;28;20086;-81
2022/06/13 12:54:45;;;;;;;7.80;3.50;;;;;;;;;;6184828;28;20070;-79
2022/06/13 12:58:22;;;;;;;6.53;3.30;;;;;;;;;;6178709;28;20218;-79
2022/06/13 13:01:45;;;;;;;8.02;3.60;;;;;;;;;;6176191;28;20051;-80
2022/06/13 13:04:56;;;;;;;12.80;3.40;;;;;;;;;;6173715;28;20066;-78
2022/06/13 13:08:03;;;;;;;8.10;3.22;;;;;;;;;;6171137;28;20089;-78
2022/06/13 13:11:21;;;;;;;9.65;3.63;;;;;;;;;;6174612;28;20182;-80
2022/06/13 13:15:11;;;;;;;6.28;3.20;;;;;;;;;;6179224;28;20065;-80
2022/06/13 13:18:41;;;;;;;7.40;3.25;;;;;;;;;;6183910;28;20624;-80
2022/06/13 13:21:57;;;;;;;6.68;3.20;;;;;;;;;;6164385;28;20050;-80
2022/06/13 13:25:16;;;;;;;7.15;3.03;;;;;;;;;;6173603;28;20058;-80
2022/06/13 13:28:31;;;;;;;6.43;3.53;;;;;;;;;;6157489;28;20083;-80
2022/06/13 13:31:59;;;;;;;7.15;3.05;;;;;;;;;;6166981;28;20436;-80
2022/06/13 13:35:30;;;;;;;7.97;3.53;;;;;;;;;;6170922;28;20074;-79
2022/06/13 13:38:56;;;;;;;5.88;3.30;;;;;;;;;;6191201;28;20051;-79
2022/06/13 13:42:03;;;;;;;6.38;3.35;;;;;;;;;;6183121;28;20038;-80
2022/06/13 13:45:33;;;;;;;7.38;3.20;;;;;;;;;;6181333;28;20516;-80
2022/06/13 13:48:41;;;;;;;6.35;2.90;;;;;;;;;;6179114;28;20101;-80
2022/06/13 13:52:00;;;;;;;6.63;3.33;;;;;;;;;;6186037;28;20062;-80
2022/06/13 13:55:12;;;;;;;8.07;3.53;;;;;;;;;;6187919;28;20069;-78
2022/06/13 13:58:27;;;;;;;8.03;2.60;;;;;;;;;;6183630;28;20193;-80
2022/06/13 14:01:37;;;;;;;6.80;2.60;;;;;;;;;;6177858;28;20043;-79
2022/06/13 14:05:00;;;;;;;6.05;2.90;;;;;;;;;;6195137;28;20492;-80
2022/06/13 14:08:02;;;;;;;6.32;2.97;;;;;;;;;;6182233;28;20675;-79
2022/06/13 14:11:08;;;;;;;6.00;2.83;;;;;;;;;;6185717;28;20138;-80
2022/06/13 14:14:10;;;;;;;6.80;2.55;;;;;;;;;;6183504;28;20054;-79
2022/06/13 14:17:11;;;;;;;7.20;2.70;;;;;;;;;;6182532;28;20129;-78
2022/06/13 14:20:26;;;;;;;8.13;3.03;;;;;;;;;;6182401;28;20042;-80
2022/06/13 14:23:37;;;;;;;4.88;2.70;;;;;;;;;;6178827;28;20065;-77
2022/06/13 14:26:42;;;;;;;5.85;2.80;;;;;;;;;;6168474;28;20051;-79
2022/06/13 14:29:45;;;;;;;5.97;2.60;;;;;;;;;;6134429;28;20112;-80
2022/06/13 14:32:46;;;;;;;7.43;2.60;;;;;;;;;;6171975;28;20181;-80
2022/06/13 14:35:58;;;;;;;5.60;2.75;;;;;;;;;;6167241;28;20050;-80
2022/06/13 14:39:03;;;;;;;7.75;2.20;;;;;;;;;;6166135;28;20200;-79
2022/06/13 14:42:12;;;;;;;4.75;2.22;;;;;;;;;;6174693;28;20068;-78
2022/06/13 14:45:43;;;;;;;4.03;2.05;;;;;;;;;;6147490;28;20643;-80
2022/06/13 14:48:53;;;;;;;4.03;2.05;;;;;;;;;;6172318;28;20041;-80
2022/06/13 14:52:13;;;;;;;6.55;2.25;;;;;;;;;;6168335;28;20046;-79
2022/06/13 14:55:16;;;;;;;3.90;2.28;;;;;;;;;;6164858;28;20592;-80
2022/06/13 14:58:46;;;;;;;5.30;2.13;;;;;;;;;;6173988;28;20762;-82
2022/06/13 15:02:22;;;;;;;8.05;2.22;;;;;;;;;;6166148;28;20042;-81
2022/06/13 15:05:30;;;;;;;4.85;2.28;;;;;;;;;;6170572;28;20053;-81
2022/06/13 15:08:58;;;;;;;5.18;2.03;;;;;;;;;;6169975;28;20216;-81
2022/06/13 15:12:07;;;;;;;6.30;2.22;;;;;;;;;;6175751;28;20137;-81
2022/06/13 15:15:20;;;;;;;3.30;1.98;;;;;;;;;;6167660;28;20096;-81
2022/06/13 15:18:27;;;;;;;4.80;2.08;;;;;;;;;;6178928;28;20057;-79
2022/06/13 15:21:32;;;;;;;4.18;1.75;;;;;;;;;;6167357;28;20078;-80
2022/06/13 15:24:54;;;;;;;4.07;2.00;;;;;;;;;;6170441;28;20202;-80
2022/06/13 15:27:58;;;;;;;3.47;1.70;;;;;;;;;;6150043;28;20392;-80
2022/06/13 15:31:08;;;;;;;5.40;1.85;;;;;;;;;;6167902;28;20737;-81
2022/06/13 15:34:12;;;;;;;3.67;1.60;;;;;;;;;;6187437;28;20050;-79
2022/06/13 15:37:13;;;;;;;3.38;1.50;;;;;;;;;;6185211;28;20409;-81
2022/06/13 15:40:20;;;;;;;3.70;1.50;;;;;;;;;;6190985;28;20039;-79
2022/06/13 15:43:29;;;;;;;4.55;1.60;;;;;;;;;;6189106;28;20043;-81
2022/06/13 15:46:35;;;;;;;4.40;1.30;;;;;;;;;;6173213;28;20050;-81
2022/06/13 15:49:44;;;;;;;3.13;1.50;;;;;;;;;;6185643;28;20065;-82
2022/06/13 15:52:48;;;;;;;4.22;1.60;;;;;;;;;;6180620;28;20047;-81
2022/06/13 15:55:50;;;;;;;5.55;1.60;;;;;;;;;;6181737;28;20141;-82
2022/06/13 15:58:57;;;;;;;4.25;1.77;;;;;;;;;;6183398;28;20127;-80
2022/06/13 16:01:58;;;;;;;3.67;1.60;;;;;;;;;;6141806;28;20051;-80
2022/06/13 16:05:11;;;;;;;2.90;1.42;;;;;;;;;;6185644;28;20146;-80
2022/06/13 16:08:15;;;;;;;2.47;1.38;;;;;;;;;;6181188;28;20126;-80
2022/06/13 16:11:17;;;;;;;3.95;1.30;;;;;;;;;;6154850;28;20078;-81
2022/06/13 16:14:20;;;;;;;6.00;1.60;;;;;;;;;;6182000;28;20392;-81
2022/06/13 16:17:37;;;;;;;3.28;1.58;;;;;;;;;;6160275;28;20059;-78
2022/06/13 16:20:44;;;;;;;2.88;1.20;;;;;;;;;;6174047;28;20117;-80
2022/06/13 16:23:52;;;;;;;3.38;1.30;;;;;;;;;;6184153;28;20052;-78
2022/06/13 16:26:55;;;;;;;2.75;1.45;;;;;;;;;;6156722;28;20048;-81
2022/06/13 16:29:59;;;;;;;3.80;1.40;;;;;;;;;;6179507;28;20137;-80
2022/06/13 16:33:02;;;;;;;4.35;1.70;;;;;;;;;;6175812;28;20761;-82
2022/06/13 16:36:05;;;;;;;;;;;;;;;;;;6201383;28;20046;-80
2022/06/13 16:39:32;;;;;;;4.72;1.60;;;;;;;;;;6165069;28;20505;-82
2022/06/13 16:42:34;;;;;;;3.30;1.38;;;;;;;;;;6177476;28;20188;-82
2022/06/13 16:45:36;;;;;;;2.88;1.15;;;;;;;;;;6177424;28;20477;-81
2022/06/13 16:48:56;;;;;;;2.90;1.33;;;;;;;;;;6173618;28;20137;-81
2022/06/13 16:52:20;;;;;;;3.50;1.38;;;;;;;;;;6170340;28;20089;-80
2022/06/13 16:55:32;;;;;;;4.43;1.35;;;;;;;;;;6177813;28;20128;-80
2022/06/13 16:58:47;;;;;;;1.90;1.00;;;;;;;;;;6158205;28;20437;-81
2022/06/13 17:01:53;;;;;;;3.67;1.00;;;;;;;;;;6187077;28;20068;-79
2022/06/13 17:04:55;;;;;;;2.53;1.00;;;;;;;;;;6183966;28;20058;-78
2022/06/13 17:08:21;;;;;;;3.63;1.17;;;;;;;;;;6179472;28;20070;-81
2022/06/13 17:11:23;;;;;;;2.90;1.15;;;;;;;;;;6172385;28;20082;-80
2022/06/13 17:14:33;;;;;;;2.75;1.20;;;;;;;;;;6177418;28;20129;-81
2022/06/13 17:17:37;;;;;;;2.33;1.20;;;;;;;;;;6158614;28;20139;-80
2022/06/13 17:20:50;;;;;;;2.60;1.30;;;;;;;;;;6172098;28;20126;-80
2022/06/13 17:23:54;;;;;;;1.65;0.93;;;;;;;;;;6178602;28;20054;-80
2022/06/13 17:33:59;;;;;;;3.13;1.25;;;;;;;;;;6172026;28;20050;-78
2022/06/13 17:37:05;;;;;;;3.70;1.00;;;;;;;;;;6176941;28;20120;-80
2022/06/13 17:40:09;;;;;;;1.98;1.25;;;;;;;;;;6177915;28;20054;-80
2022/06/13 17:43:14;;;;;;;2.67;1.10;;;;;;;;;;6181863;28;20046;-79
2022/06/13 17:46:18;;;;;;;1.67;1.02;;;;;;;;;;6164574;28;20058;-80
2022/06/13 17:49:23;;;;;;;1.38;0.90;;;;;;;;;;6178411;28;20051;-80
2022/06/13 17:52:26;;;;;;;4.40;1.05;;;;;;;;;;6170033;28;20054;-79
2022/06/13 17:55:33;;;;;;;2.13;1.00;;;;;;;;;;6173222;28;20492;-78
2022/06/13 17:58:36;;;;;;;3.22;1.00;;;;;;;;;;6171241;28;20069;-78
2022/06/13 18:01:38;;;;;;;1.60;1.10;;;;;;;;;;6163160;28;20039;-80
2022/06/13 18:04:43;;;;;;;2.72;1.00;;;;;;;;;;6174189;28;20046;-80
2022/06/13 18:07:50;;;;;;;1.67;0.77;;;;;;;;;;6169054;28;20046;-79
2022/06/13 18:10:53;;;;;;;3.13;0.98;;;;;;;;;;6158960;28;20133;-80
2022/06/13 18:13:55;;;;;;;1.27;0.77;;;;;;;;;;6168022;28;20039;-78
2022/06/13 18:16:58;;;;;;;2.50;0.75;;;;;;;;;;6173207;28;20146;-78
2022/06/13 18:20:00;;;;;;;1.98;0.80;;;;;;;;;;6176234;28;20075;-79
2022/06/13 18:23:02;;;;;;;2.77;1.00;;;;;;;;;;6171473;28;20117;-79
2022/06/13 18:26:08;;;;;;;3.38;0.80;;;;;;;;;;6164986;28;20061;-78
2022/06/13 18:29:12;;;;;;;2.47;0.80;;;;;;;;;;6164313;28;20102;-81
2022/06/13 18:32:14;;;;;;;1.50;0.85;;;;;;;;;;6186142;28;20157;-78
2022/06/13 18:35:16;;;;;;;2.90;0.80;;;;;;;;;;6177698;28;20043;-79
2022/06/13 18:38:17;;;;;;;1.87;0.87;;;;;;;;;;6179984;28;20371;-81
2022/06/13 18:41:22;;;;;;;3.85;1.17;;;;;;;;;;6181738;28;20065;-80
2022/06/13 18:44:23;;;;;;;2.80;0.93;;;;;;;;;;6182500;28;20157;-80
2022/06/13 18:47:26;;;;;;;2.13;0.90;;;;;;;;;;6181851;28;20054;-80
2022/06/13 18:50:28;;;;;;;2.88;1.13;;;;;;;;;;6166605;28;20088;-79
2022/06/13 18:53:30;;;;;;;3.28;1.00;;;;;;;;;;6179588;28;20110;-78
2022/06/13 18:56:33;;;;;;;2.20;0.90;;;;;;;;;;6177195;28;20113;-80
2022/06/13 18:59:35;;;;;;;2.25;0.90;;;;;;;;;;6172281;28;20157;-79
2022/06/13 19:02:40;;;;;;;1.83;0.90;;;;;;;;;;6180451;28;20129;-81
2022/06/13 19:05:43;;;;;;;2.78;0.90;;;;;;;;;;6172566;28;20077;-79
2022/06/13 19:08:46;;;;;;;2.60;1.00;;;;;;;;;;6187044;28;20105;-79
2022/06/13 19:11:49;;;;;;;;;;;;;;;;;;6184034;28;20877;-81
2022/06/13 19:14:55;;;;;;;2.13;1.10;;;;;;;;;;6172467;28;20295;-79
2022/06/13 19:17:57;;;;;;;2.60;1.13;;;;;;;;;;6186141;28;20124;-80
2022/06/13 19:20:59;;;;;;;2.70;0.75;;;;;;;;;;6174536;28;20117;-81
2022/06/13 19:24:01;;;;;;;3.10;1.10;;;;;;;;;;6178235;28;20043;-79
2022/06/13 19:27:03;;;;;;;3.70;0.90;;;;;;;;;;6155293;28;20411;-79
2022/06/13 19:30:06;;;;;;;2.20;0.80;;;;;;;;;;6144590;28;20057;-78